Domov               UVHVVR             MKGP            O straneh              
ZDRAVSTVENO VARSTVO RASTLIN
  MREŽA AGROMET. POSTAJ
 ► PROGNOSTIČNA OBVESTILA
AGROMETEOROLOŠKI PODATKI -
ARSO
OBVLADOVANJE TVEGANJ ZARADI
NEUGODNIH VREMENSKIH RAZMER
  ► NARAVNE NESREČE
  ► SUŠA/MOČA
  ► NAMAKANJE
  ► ŽLED (gozdarstvo)
KARTOGRAFSKI PRIKAZI
SPLETNE POVEZAVE
PROJEKTI IN PUBLIKACIJE

AGROMETEOROLOŠKA MREŽA: VREMENSKE POSTAJE IN FENOLOŠKA OPAZOVANJA

Pregled podatkov za lokacijo Godemarci, meteorološka postaja 37828

Pregled senzorjev na lokaciji

ID Ime Zadnja
vrednost
Datum
zadnje
spremembe
Tip
senzorja
4311 Omočenost lista (U) 0 U 23.3.2019 11:30 A730WET
3802 Padavine (mm) 0 mm 23.3.2019 11:30 Rain-O-Matic
3801 Relativna vlaga 2 m (% RH) 42,44 % RH 23.3.2019 11:30 50YA
3800 Temperatura 2 m (°C) 14,95 °C 23.3.2019 11:29 50YA

Pregled podatkov zadnjih 24 ur

Zap.
št.
Datum in čas Godemarci
Omočenost
lista
Padavine Relativna
vlaga
2
m
Temperatura
2
m
1 23.3.2019 11:00
2 23.3.2019 10:30 0 0 42,4 14,9
3 23.3.2019 10:00 0 0 42,9 14,3
4 23.3.2019 09:30 0 0 41,2 13,7
5 23.3.2019 09:00 0 0 53,4 11
6 23.3.2019 08:30 0 0 65,4 8,7
7 23.3.2019 08:00 1 0 65,7 7,4
8 23.3.2019 07:30 3 0 76,8 4,1
9 23.3.2019 07:00 3 0 94,2 0,9
10 23.3.2019 06:30 3 0 99,9 -1
11 23.3.2019 06:00 2 0 99,9 -1,3
12 23.3.2019 05:30 2 0 99,9 -1,3
13 23.3.2019 05:00 1 0 99,9 -1,2
14 23.3.2019 04:30 1 0 99,9 -1,1
15 23.3.2019 04:00 0 0 98,6 -0,9
16 23.3.2019 03:30 0 0 95,7 -0,9
17 23.3.2019 03:00 0 0 94,4 -0,7
18 23.3.2019 02:30 0 0 92,8 -0,5
19 23.3.2019 02:00 0 0 92 -0,1
20 23.3.2019 01:30 0 0 90,6 0,1
21 23.3.2019 01:00 0 0 89,8 0,2
22 23.3.2019 00:30 0 0 88,5 0,7
23 23.3.2019 00:00 0 0 90,3 0,9
24 22.3.2019 23:30 0 0 88,1 1,2
25 22.3.2019 23:00 0 0 87 1,5
26 22.3.2019 22:30 0 0 85,9 1,8
27 22.3.2019 22:00 0 0 85,1 2,2
28 22.3.2019 21:30 0 0 83 2,9
29 22.3.2019 21:00 0 0 82,7 3,3
30 22.3.2019 20:30 0 0 80,5 4,1
31 22.3.2019 20:00 0 0 77,8 4,7
32 22.3.2019 19:30 0 0 75,8 5,4
33 22.3.2019 19:00 0 0 71,5 6,5
34 22.3.2019 18:30 0 0 63 8,3
35 22.3.2019 18:00 0 0 46,7 11,1
36 22.3.2019 17:30 0 0 32,9 14
37 22.3.2019 17:00 0 0 24,3 15,4
38 22.3.2019 16:30 0 0 20,7 16,1
39 22.3.2019 16:00 0 0 23,3 16
40 22.3.2019 15:30 0 0 22 16,3
41 22.3.2019 15:00 0 0 21,5 16,3
42 22.3.2019 14:30 0 0 22,2 16,1
43 22.3.2019 14:00 0 0 23,6 15,8
44 22.3.2019 13:30 0 0 25,5 15,4
45 22.3.2019 13:00 0 0 27,9 14,9
46 22.3.2019 12:30 0 0 29,9 14,6
47 22.3.2019 12:00 0 0 29,4 15
48 22.3.2019 11:30 0 0 30 14,3
© 2011 Ministrstvo za kmetijstvo, gozdarstvo in prehrano. Vse pravice pridržane.